createdAt,value
2022-11-20T00:00:11.635Z,12.85
2022-11-20T00:03:14.240Z,12.15
2022-11-20T00:06:18.470Z,11.98
2022-11-20T00:09:22.641Z,12.77
2022-11-20T00:12:25.305Z,12.60
2022-11-20T00:15:27.744Z,13.15
2022-11-20T00:18:30.300Z,13.55
2022-11-20T00:21:34.220Z,12.77
2022-11-20T00:24:42.883Z,13.07
2022-11-20T00:27:45.712Z,13.02
2022-11-20T00:30:48.137Z,13.18
2022-11-20T00:33:50.949Z,13.13
2022-11-20T00:36:53.436Z,13.45
2022-11-20T00:39:57.394Z,13.20
2022-11-20T00:42:59.824Z,13.23
2022-11-20T00:46:04.187Z,12.95
2022-11-20T00:49:06.630Z,14.02
2022-11-20T00:52:27.626Z,13.88
2022-11-20T00:55:31.367Z,13.23
2022-11-20T00:58:35.926Z,13.57
2022-11-20T01:01:38.901Z,13.77
2022-11-20T01:04:41.719Z,14.20
2022-11-20T01:07:44.158Z,13.90
2022-11-20T01:10:48.020Z,13.67
2022-11-20T01:13:52.078Z,13.10
2022-11-20T01:16:54.575Z,13.32
2022-11-20T01:19:56.970Z,13.52
2022-11-20T01:22:59.360Z,13.55
2022-11-20T01:26:05.556Z,13.77
2022-11-20T01:29:11.633Z,13.32
2022-11-20T01:32:14.051Z,13.82
2022-11-20T01:35:16.561Z,13.32
2022-11-20T01:38:21.039Z,13.95
2022-11-20T01:41:48.475Z,14.13
2022-11-20T01:44:55.384Z,13.98
2022-11-20T01:47:57.943Z,14.45
2022-11-20T01:51:02.478Z,13.35
2022-11-20T01:54:09.685Z,13.95
2022-11-20T01:57:15.032Z,12.77
2022-11-20T02:00:20.047Z,13.63
2022-11-20T02:03:22.661Z,13.45
2022-11-20T02:06:28.492Z,12.77
2022-11-20T02:09:30.978Z,13.90
2022-11-20T02:12:53.710Z,12.83
2022-11-20T02:15:56.450Z,12.75
2022-11-20T02:19:01.447Z,13.23
2022-11-20T02:22:11.216Z,12.82
2022-11-20T02:25:16.182Z,12.55
2022-11-20T02:28:19.292Z,11.53
2022-11-20T02:31:21.768Z,13.05
2022-11-20T02:34:24.218Z,12.77
2022-11-20T02:37:33.360Z,11.80
2022-11-20T02:40:37.391Z,12.75
2022-11-20T02:43:39.800Z,12.67
2022-11-20T02:46:42.262Z,12.70
2022-11-20T02:49:44.726Z,13.00
2022-11-20T02:52:47.416Z,12.27
2022-11-20T02:55:51.299Z,12.32
2022-11-20T02:58:53.836Z,13.40
2022-11-20T03:01:57.253Z,12.77
2022-11-20T03:04:59.959Z,12.07
2022-11-20T03:08:02.370Z,12.48
2022-11-20T03:11:08.090Z,11.70
2022-11-20T03:14:10.547Z,13.33
2022-11-20T03:17:12.954Z,12.02
2022-11-20T03:20:15.753Z,11.90
2022-11-20T03:23:18.207Z,12.27
2022-11-20T03:26:24.128Z,12.00
2022-11-20T03:29:26.820Z,11.17
2022-11-20T03:32:29.336Z,11.93
2022-11-20T03:35:31.778Z,11.00
2022-11-20T03:38:34.869Z,12.10
2022-11-20T03:41:40.533Z,11.82
2022-11-20T03:44:42.931Z,10.67
2022-11-20T03:47:46.207Z,11.88
2022-11-20T03:50:48.823Z,11.63
2022-11-20T03:53:53.283Z,11.50
2022-11-20T03:56:57.412Z,10.23
2022-11-20T04:00:00.371Z,11.77
2022-11-20T04:03:03.761Z,11.57
2022-11-20T04:06:08.462Z,11.68
2022-11-20T04:09:11.051Z,11.23
2022-11-20T04:12:14.815Z,11.82
2022-11-20T04:15:17.559Z,11.27
2022-11-20T04:18:19.941Z,10.90
2022-11-20T04:21:23.373Z,11.77
2022-11-20T04:24:25.842Z,11.55
2022-11-20T04:27:29.610Z,11.23
2022-11-20T04:30:32.111Z,10.97
2022-11-20T04:33:35.090Z,10.70
2022-11-20T04:36:37.528Z,10.15
2022-11-20T04:39:39.972Z,10.73
2022-11-20T04:42:43.871Z,11.15
2022-11-20T04:45:51.598Z,12.63
2022-11-20T04:48:54.343Z,14.35
2022-11-20T04:51:56.734Z,14.90
2022-11-20T04:54:59.136Z,12.25
2022-11-20T04:58:02.979Z,12.65
2022-11-20T05:01:07.433Z,11.50
2022-11-20T05:04:09.991Z,11.85
2022-11-20T05:07:12.421Z,11.52
2022-11-20T05:10:15.372Z,12.07
2022-11-20T05:13:19.235Z,10.60
2022-11-20T05:16:24.066Z,12.53
2022-11-20T05:19:26.812Z,12.68
2022-11-20T05:22:29.256Z,12.23
2022-11-20T05:25:31.665Z,11.05
2022-11-20T05:28:54.174Z,10.82
2022-11-20T05:31:56.587Z,12.37
2022-11-20T05:34:59.035Z,12.35
2022-11-20T05:38:01.450Z,11.82
2022-11-20T05:41:05.667Z,11.60
2022-11-20T05:44:11.389Z,12.98
2022-11-20T05:47:13.828Z,11.73
2022-11-20T05:50:16.402Z,10.85
2022-11-20T05:53:19.175Z,10.65
2022-11-20T05:56:22.836Z,11.25
2022-11-20T05:59:26.827Z,11.25
2022-11-20T06:02:29.281Z,10.80
2022-11-20T06:05:31.833Z,11.60
2022-11-20T06:08:34.715Z,11.77
2022-11-20T06:11:37.285Z,11.43
2022-11-20T06:14:41.022Z,13.80
2022-11-20T06:17:43.417Z,13.43
2022-11-20T06:20:46.166Z,14.73
2022-11-20T06:23:49.521Z,11.60
2022-11-20T06:26:52.152Z,12.68
2022-11-20T06:29:55.979Z,11.68
2022-11-20T06:32:58.398Z,11.50
2022-11-20T06:36:07.190Z,10.27
2022-11-20T06:39:11.749Z,11.55
2022-11-20T06:42:14.257Z,12.48
2022-11-20T06:45:18.076Z,12.30
2022-11-20T06:48:21.118Z,12.37
2022-11-20T06:51:23.535Z,11.27
2022-11-20T06:54:26.018Z,12.07
2022-11-20T06:57:28.438Z,12.68
2022-11-20T07:00:32.314Z,12.57
2022-11-20T07:03:34.851Z,10.83
2022-11-20T07:06:37.387Z,12.10
2022-11-20T07:09:40.256Z,12.68
2022-11-20T07:12:42.908Z,10.70
2022-11-20T07:15:46.696Z,10.38
2022-11-20T07:18:51.083Z,11.37
2022-11-20T07:21:53.894Z,11.65
2022-11-20T07:24:56.516Z,12.90
2022-11-20T07:27:59.765Z,10.85
2022-11-20T07:31:05.997Z,11.23
2022-11-20T07:34:08.726Z,11.80
2022-11-20T07:37:11.203Z,11.32
2022-11-20T07:40:13.847Z,13.32
2022-11-20T07:43:16.346Z,12.32
2022-11-20T07:46:20.158Z,14.02
2022-11-20T07:49:22.773Z,10.90
2022-11-20T07:52:25.451Z,10.25
2022-11-20T07:55:27.914Z,12.07
2022-11-20T07:58:31.320Z,10.68
2022-11-20T08:01:35.484Z,11.75
2022-11-20T08:04:37.917Z,10.97
2022-11-20T08:07:41.621Z,10.25
2022-11-20T08:10:44.070Z,11.27
2022-11-20T08:14:05.350Z,13.90
2022-11-20T08:17:09.174Z,12.30
2022-11-20T08:20:11.863Z,11.27
2022-11-20T08:23:14.705Z,14.20
2022-11-20T08:26:17.160Z,12.85
2022-11-20T08:29:19.974Z,12.30
2022-11-20T08:32:23.875Z,16.45
2022-11-20T08:35:26.333Z,11.77
2022-11-20T08:38:29.256Z,14.50
2022-11-20T08:41:34.270Z,11.43
2022-11-20T08:44:36.868Z,11.57
2022-11-20T08:47:41.043Z,10.82
2022-11-20T08:50:43.529Z,10.33
2022-11-20T08:53:46.145Z,11.35
2022-11-20T08:56:48.698Z,11.95
2022-11-20T09:00:05.412Z,10.00
2022-11-20T09:03:10.391Z,10.05
2022-11-20T09:06:13.292Z,12.13
2022-11-20T09:09:15.777Z,11.07
2022-11-20T09:12:18.315Z,12.20
2022-11-20T09:15:21.064Z,12.15
2022-11-20T09:18:25.394Z,10.98
2022-11-20T09:21:27.891Z,11.57
2022-11-20T09:24:30.897Z,11.55
2022-11-20T09:27:33.383Z,11.13
2022-11-20T09:30:36.199Z,10.85
2022-11-20T09:33:40.037Z,10.07
2022-11-20T09:36:42.452Z,9.93
2022-11-20T09:39:44.971Z,11.10
2022-11-20T09:42:55.242Z,11.68
2022-11-20T09:46:14.625Z,13.00
2022-11-20T09:49:32.280Z,9.55
2022-11-20T09:52:47.287Z,10.70
2022-11-20T09:55:50.131Z,11.43
2022-11-20T09:58:55.578Z,11.77
2022-11-20T10:02:00.220Z,11.32
2022-11-20T10:05:11.978Z,10.48
2022-11-20T10:08:21.186Z,10.10
2022-11-20T10:11:34.223Z,10.80
2022-11-20T10:14:51.651Z,12.02
2022-11-20T10:18:18.193Z,11.07
2022-11-20T10:21:31.499Z,11.38
2022-11-20T10:24:43.383Z,10.40
2022-11-20T10:28:18.981Z,10.77
2022-11-20T10:31:30.342Z,10.20
2022-11-20T10:34:48.014Z,10.75
2022-11-20T10:37:57.486Z,10.90
2022-11-20T10:41:21.426Z,10.77
2022-11-20T10:44:46.963Z,14.02
2022-11-20T10:47:49.882Z,11.73
2022-11-20T10:51:16.896Z,10.63
2022-11-20T10:54:25.456Z,10.75
2022-11-20T10:57:47.946Z,11.57
2022-11-20T11:00:50.508Z,11.68
2022-11-20T11:03:54.053Z,11.43
2022-11-20T11:07:02.169Z,10.13
2022-11-20T11:10:18.881Z,11.20
2022-11-20T11:13:23.435Z,12.93
2022-11-20T11:16:28.027Z,12.00
2022-11-20T11:19:30.512Z,11.57
2022-11-20T11:22:35.680Z,11.45
2022-11-20T11:25:40.477Z,12.32
2022-11-20T11:28:43.026Z,11.00
2022-11-20T11:31:45.421Z,11.45
2022-11-20T11:35:00.093Z,13.23
2022-11-20T11:38:10.682Z,11.50
2022-11-20T11:41:20.367Z,10.55
2022-11-20T11:44:46.748Z,13.67
2022-11-20T11:47:49.757Z,11.57
2022-11-20T11:50:53.018Z,11.15
2022-11-20T11:53:59.684Z,10.48
2022-11-20T11:57:11.672Z,11.77
2022-11-20T12:00:16.410Z,10.70
2022-11-20T12:03:22.618Z,11.90
2022-11-20T12:06:27.420Z,14.20
2022-11-20T12:09:38.594Z,12.48
2022-11-20T12:12:47.649Z,12.75
2022-11-20T12:15:50.566Z,13.43
2022-11-20T12:18:54.082Z,11.63
2022-11-20T12:22:06.407Z,11.88
2022-11-20T12:25:12.906Z,11.57
2022-11-20T12:28:42.983Z,12.73
2022-11-20T12:32:03.801Z,10.80
2022-11-20T12:35:19.276Z,11.05
2022-11-20T12:38:43.608Z,11.98
2022-11-20T12:42:22.182Z,13.20
2022-11-20T12:45:55.466Z,12.75
2022-11-20T12:49:11.058Z,12.30
2022-11-20T12:52:35.256Z,12.25
2022-11-20T12:55:48.185Z,11.68
2022-11-20T12:59:02.395Z,23.88
2022-11-20T13:02:25.920Z,11.60
2022-11-20T13:05:38.111Z,11.80
2022-11-20T13:08:42.090Z,11.48
2022-11-20T13:11:48.533Z,10.80
2022-11-20T13:14:57.154Z,10.85
2022-11-20T13:18:03.713Z,10.13
2022-11-20T13:21:15.760Z,11.57
2022-11-20T13:24:25.001Z,10.07
2022-11-20T13:27:28.029Z,10.98
2022-11-20T13:30:31.600Z,12.20
2022-11-20T13:33:37.669Z,11.25
2022-11-20T13:36:50.784Z,24.87
2022-11-20T13:39:53.498Z,13.27
2022-11-20T13:43:03.299Z,13.93
2022-11-20T13:46:07.845Z,14.15
2022-11-20T13:49:19.420Z,14.88
2022-11-20T13:52:40.437Z,11.80
2022-11-20T13:55:52.971Z,14.98
2022-11-20T13:59:05.336Z,16.35
2022-11-20T14:02:13.971Z,16.05
2022-11-20T14:05:22.707Z,17.17
2022-11-20T14:08:32.177Z,18.73
2022-11-20T14:11:34.941Z,18.55
2022-11-20T14:14:49.251Z,20.67
2022-11-20T14:17:51.947Z,20.23
2022-11-20T14:20:56.139Z,20.02
2022-11-20T14:24:05.897Z,19.50
2022-11-20T14:27:14.056Z,18.92
2022-11-20T14:30:19.351Z,22.83
2022-11-20T14:33:25.842Z,20.67
2022-11-20T14:36:29.781Z,18.33
2022-11-20T14:39:35.221Z,19.67
2022-11-20T14:42:38.403Z,21.50
2022-11-20T14:45:41.024Z,35.47
2022-11-20T14:48:47.120Z,33.28
2022-11-20T14:52:00.184Z,33.10
2022-11-20T14:55:02.796Z,39.67
2022-11-20T14:58:07.457Z,49.90
2022-11-20T15:01:15.134Z,55.17
2022-11-20T15:04:17.860Z,52.10
2022-11-20T15:07:29.900Z,41.63
2022-11-20T15:10:32.894Z,42.50
2022-11-20T15:13:38.579Z,48.95
2022-11-20T15:16:41.301Z,40.17
2022-11-20T15:19:44.416Z,40.08
2022-11-20T15:22:48.389Z,30.10
2022-11-20T15:25:51.271Z,34.07
2022-11-20T15:28:54.418Z,36.40
2022-11-20T15:31:57.534Z,39.60
2022-11-20T15:35:00.140Z,45.55
2022-11-20T15:38:04.358Z,38.88
2022-11-20T15:41:08.277Z,31.30
2022-11-20T15:44:12.209Z,36.20
2022-11-20T15:47:14.674Z,35.13
2022-11-20T15:50:18.820Z,30.95
2022-11-20T15:53:22.858Z,28.58
2022-11-20T15:56:26.244Z,29.93
2022-11-20T15:59:29.239Z,30.35
2022-11-20T16:02:32.582Z,30.52
2022-11-20T16:05:35.330Z,32.83
2022-11-20T16:08:39.408Z,28.75
2022-11-20T16:11:42.071Z,25.23
2022-11-20T16:15:03.626Z,25.65
2022-11-20T16:18:09.704Z,27.27
2022-11-20T16:21:14.232Z,25.42
2022-11-20T16:24:18.330Z,25.52
2022-11-20T16:27:22.166Z,28.53
2022-11-20T16:30:25.035Z,31.52
2022-11-20T16:33:27.724Z,34.67
2022-11-20T16:36:30.854Z,36.63
2022-11-20T16:39:35.219Z,44.80
2022-11-20T16:42:38.555Z,37.67
2022-11-20T16:45:42.492Z,29.95
2022-11-20T16:48:45.213Z,28.60
2022-11-20T16:51:48.531Z,23.92
2022-11-20T16:54:52.628Z,21.40
2022-11-20T16:57:55.396Z,21.33
2022-11-20T17:01:05.149Z,25.50
2022-11-20T17:04:07.915Z,25.05
2022-11-20T17:07:10.906Z,25.33
2022-11-20T17:10:15.352Z,26.15
2022-11-20T17:13:17.785Z,26.57
2022-11-20T17:16:23.314Z,26.10
2022-11-20T17:19:26.034Z,22.45
2022-11-20T17:22:28.711Z,22.90
2022-11-20T17:25:34.669Z,31.35
2022-11-20T17:28:38.297Z,78.37
2022-11-20T17:31:42.312Z,64.75
2022-11-20T17:34:44.975Z,33.80
2022-11-20T17:37:47.670Z,31.27
2022-11-20T17:40:51.807Z,27.67
2022-11-20T17:43:55.506Z,25.50
2022-11-20T17:46:58.235Z,22.83
2022-11-20T17:50:01.171Z,22.23
2022-11-20T17:53:04.043Z,24.02
2022-11-20T17:56:27.317Z,25.75
2022-11-20T17:59:30.093Z,24.93
2022-11-20T18:02:32.939Z,23.27
2022-11-20T18:05:35.759Z,24.58
2022-11-20T18:08:39.302Z,22.80
2022-11-20T18:11:44.055Z,26.45
2022-11-20T18:14:47.390Z,28.50
2022-11-20T18:17:50.123Z,30.23
2022-11-20T18:20:53.477Z,28.60
2022-11-20T18:23:56.781Z,32.70
2022-11-20T18:27:00.939Z,36.92
2022-11-20T18:30:04.722Z,32.77
2022-11-20T18:33:07.819Z,28.65
2022-11-20T18:36:11.233Z,25.10
2022-11-20T18:39:14.848Z,24.48
2022-11-20T18:42:37.803Z,25.98
2022-11-20T18:45:40.562Z,24.77
2022-11-20T18:48:43.827Z,25.88
2022-11-20T18:51:46.485Z,27.88
2022-11-20T18:54:50.706Z,28.38
2022-11-20T18:57:55.233Z,27.80
2022-11-20T19:01:05.079Z,28.63
2022-11-20T19:04:08.857Z,30.20
2022-11-20T19:07:14.518Z,59.75
2022-11-20T19:10:20.089Z,66.38
2022-11-20T19:13:24.339Z,48.95
2022-11-20T19:16:29.424Z,33.50
2022-11-20T19:19:32.050Z,31.02
2022-11-20T19:22:34.780Z,30.70
2022-11-20T19:25:38.490Z,31.90
2022-11-20T19:28:42.578Z,35.05
2022-11-20T19:31:45.626Z,38.27
2022-11-20T19:34:49.455Z,40.97
2022-11-20T19:37:52.294Z,41.03
2022-11-20T19:40:55.208Z,41.55
2022-11-20T19:44:00.988Z,39.03
2022-11-20T19:47:09.027Z,43.23
2022-11-20T19:50:15.933Z,37.38
2022-11-20T19:53:19.049Z,40.95
2022-11-20T19:56:23.775Z,44.08
2022-11-20T19:59:28.139Z,50.47
2022-11-20T20:02:31.096Z,49.53
2022-11-20T20:05:34.360Z,48.47
2022-11-20T20:08:37.603Z,44.50
2022-11-20T20:11:40.685Z,40.95
2022-11-20T20:14:44.472Z,41.67
2022-11-20T20:17:46.947Z,46.63
2022-11-20T20:20:49.714Z,144.55
2022-11-20T20:23:53.616Z,54.45
2022-11-20T20:26:58.266Z,48.85
2022-11-20T20:30:02.562Z,33.63
2022-11-20T20:33:05.310Z,29.77
2022-11-20T20:36:10.071Z,32.13
2022-11-20T20:39:12.810Z,31.73
2022-11-20T20:42:15.808Z,31.60
2022-11-20T20:45:19.826Z,29.30
2022-11-20T20:48:24.392Z,27.87
2022-11-20T20:51:27.414Z,27.88
2022-11-20T20:54:34.201Z,27.23
2022-11-20T20:57:37.794Z,27.80
2022-11-20T21:00:41.813Z,28.15
2022-11-20T21:03:44.508Z,33.93
2022-11-20T21:06:47.358Z,34.35
2022-11-20T21:09:50.376Z,32.53
2022-11-20T21:12:53.100Z,33.33
2022-11-20T21:15:57.189Z,35.17
2022-11-20T21:18:59.666Z,32.67
2022-11-20T21:22:04.880Z,33.30
2022-11-20T21:25:07.899Z,34.40
2022-11-20T21:28:15.481Z,34.03
2022-11-20T21:31:24.987Z,39.03
2022-11-20T21:34:27.703Z,36.50
2022-11-20T21:37:30.104Z,31.90
2022-11-20T21:40:33.279Z,28.92
2022-11-20T21:43:37.002Z,27.00
2022-11-20T21:46:42.747Z,24.88
2022-11-20T21:49:45.404Z,21.10
2022-11-20T21:52:47.970Z,19.20
2022-11-20T21:55:54.722Z,19.25
2022-11-20T21:58:57.268Z,18.23
2022-11-20T22:02:01.303Z,18.70
2022-11-20T22:05:04.148Z,19.60
2022-11-20T22:08:06.650Z,20.00
2022-11-20T22:11:11.555Z,19.98
2022-11-20T22:14:23.674Z,19.77
2022-11-20T22:17:46.458Z,19.58
2022-11-20T22:20:48.849Z,19.10
2022-11-20T22:23:51.538Z,18.98
2022-11-20T22:26:54.099Z,19.17
2022-11-20T22:29:56.551Z,18.25
2022-11-20T22:33:00.350Z,18.52
2022-11-20T22:36:04.512Z,18.77
2022-11-20T22:39:07.195Z,17.98
2022-11-20T22:42:09.620Z,19.42
2022-11-20T22:45:13.590Z,18.85
2022-11-20T22:48:17.836Z,18.42
2022-11-20T22:51:21.608Z,18.80
2022-11-20T22:54:24.418Z,20.00
2022-11-20T22:57:27.120Z,19.50
2022-11-20T23:00:29.704Z,18.48
2022-11-20T23:03:34.639Z,18.63
2022-11-20T23:06:37.610Z,19.70
2022-11-20T23:09:40.115Z,22.80
2022-11-20T23:12:42.511Z,22.67
2022-11-20T23:15:44.942Z,22.45
2022-11-20T23:18:52.955Z,23.90
2022-11-20T23:21:55.421Z,25.40
2022-11-20T23:24:57.931Z,22.20
2022-11-20T23:28:02.664Z,21.33
2022-11-20T23:31:06.142Z,19.90
2022-11-20T23:34:10.567Z,19.67
2022-11-20T23:37:12.984Z,18.87
2022-11-20T23:40:15.607Z,20.25
2022-11-20T23:43:20.095Z,20.15
2022-11-20T23:46:22.567Z,20.63
2022-11-20T23:49:26.511Z,19.45
2022-11-20T23:52:28.996Z,17.10
2022-11-20T23:55:32.218Z,16.35
2022-11-20T23:58:36.506Z,17.10
